sensor_id;sensor_type;location;lat;lon;timestamp;temperature;humidity
36216;DHT22;22257;52.232;21.084;2022-08-20T00:00:52;23.90;99.90
36216;DHT22;22257;52.232;21.084;2022-08-20T00:03:24;23.90;99.90
36216;DHT22;22257;52.232;21.084;2022-08-20T00:05:59;23.90;99.90
36216;DHT22;22257;52.232;21.084;2022-08-20T00:08:27;23.90;99.90
36216;DHT22;22257;52.232;21.084;2022-08-20T00:10:54;23.90;99.90
36216;DHT22;22257;52.232;21.084;2022-08-20T00:13:29;23.90;99.90
36216;DHT22;22257;52.232;21.084;2022-08-20T00:15:51;23.80;99.90
36216;DHT22;22257;52.232;21.084;2022-08-20T00:18:18;23.80;99.90
36216;DHT22;22257;52.232;21.084;2022-08-20T00:20:46;23.80;99.90
36216;DHT22;22257;52.232;21.084;2022-08-20T00:23:14;23.80;99.90
36216;DHT22;22257;52.232;21.084;2022-08-20T00:25:41;23.80;99.90
36216;DHT22;22257;52.232;21.084;2022-08-20T00:28:09;23.80;99.90
36216;DHT22;22257;52.232;21.084;2022-08-20T00:30:38;23.80;99.90
36216;DHT22;22257;52.232;21.084;2022-08-20T00:33:07;23.80;99.90
36216;DHT22;22257;52.232;21.084;2022-08-20T00:35:36;23.80;99.90
36216;DHT22;22257;52.232;21.084;2022-08-20T00:38:03;23.80;99.90
36216;DHT22;22257;52.232;21.084;2022-08-20T00:40:40;23.80;99.90
36216;DHT22;22257;52.232;21.084;2022-08-20T00:43:22;23.80;99.90
36216;DHT22;22257;52.232;21.084;2022-08-20T00:45:35;23.90;99.90
36216;DHT22;22257;52.232;21.084;2022-08-20T00:48:02;23.80;99.90
36216;DHT22;22257;52.232;21.084;2022-08-20T00:50:34;23.80;99.90
36216;DHT22;22257;52.232;21.084;2022-08-20T00:53:03;23.80;99.90
36216;DHT22;22257;52.232;21.084;2022-08-20T00:55:32;23.70;99.90
36216;DHT22;22257;52.232;21.084;2022-08-20T00:58:02;23.70;99.90
36216;DHT22;22257;52.232;21.084;2022-08-20T01:00:33;23.70;99.90
36216;DHT22;22257;52.232;21.084;2022-08-20T01:03:00;23.60;99.90
36216;DHT22;22257;52.232;21.084;2022-08-20T01:05:27;23.60;99.90
36216;DHT22;22257;52.232;21.084;2022-08-20T01:07:54;23.60;99.90
36216;DHT22;22257;52.232;21.084;2022-08-20T01:10:28;23.60;99.90
36216;DHT22;22257;52.232;21.084;2022-08-20T01:12:52;23.60;99.90
36216;DHT22;22257;52.232;21.084;2022-08-20T01:15:21;23.60;99.90
36216;DHT22;22257;52.232;21.084;2022-08-20T01:17:51;23.60;99.90
36216;DHT22;22257;52.232;21.084;2022-08-20T01:20:31;23.50;99.90
36216;DHT22;22257;52.232;21.084;2022-08-20T01:28:34;23.50;99.90
36216;DHT22;22257;52.232;21.084;2022-08-20T01:30:57;23.40;99.90
36216;DHT22;22257;52.232;21.084;2022-08-20T01:33:23;23.40;99.90
36216;DHT22;22257;52.232;21.084;2022-08-20T01:35:51;23.30;99.90
36216;DHT22;22257;52.232;21.084;2022-08-20T01:38:18;23.30;99.90
36216;DHT22;22257;52.232;21.084;2022-08-20T01:43:50;23.30;99.90
36216;DHT22;22257;52.232;21.084;2022-08-20T01:46:19;23.20;99.90
36216;DHT22;22257;52.232;21.084;2022-08-20T01:48:45;23.20;99.90
36216;DHT22;22257;52.232;21.084;2022-08-20T01:51:17;23.20;99.90
36216;DHT22;22257;52.232;21.084;2022-08-20T01:53:48;23.10;99.90
36216;DHT22;22257;52.232;21.084;2022-08-20T01:56:17;23.10;99.90
36216;DHT22;22257;52.232;21.084;2022-08-20T01:58:46;23.00;99.90
36216;DHT22;22257;52.232;21.084;2022-08-20T02:03:54;22.90;99.90
36216;DHT22;22257;52.232;21.084;2022-08-20T02:06:22;22.90;99.90
36216;DHT22;22257;52.232;21.084;2022-08-20T02:08:53;22.80;99.90
36216;DHT22;22257;52.232;21.084;2022-08-20T02:11:21;22.80;99.90
36216;DHT22;22257;52.232;21.084;2022-08-20T02:13:47;22.80;99.90
36216;DHT22;22257;52.232;21.084;2022-08-20T02:16:15;22.70;99.90
36216;DHT22;22257;52.232;21.084;2022-08-20T02:18:41;22.70;99.90
36216;DHT22;22257;52.232;21.084;2022-08-20T02:21:08;22.60;99.90
36216;DHT22;22257;52.232;21.084;2022-08-20T02:23:34;22.60;99.90
36216;DHT22;22257;52.232;21.084;2022-08-20T02:26:00;22.60;99.90
36216;DHT22;22257;52.232;21.084;2022-08-20T02:28:26;22.60;99.90
36216;DHT22;22257;52.232;21.084;2022-08-20T02:30:53;22.60;99.90
36216;DHT22;22257;52.232;21.084;2022-08-20T02:33:21;22.50;99.90
36216;DHT22;22257;52.232;21.084;2022-08-20T02:35:49;22.50;99.90
36216;DHT22;22257;52.232;21.084;2022-08-20T02:38:15;22.50;99.90
36216;DHT22;22257;52.232;21.084;2022-08-20T02:40:43;22.50;99.90
36216;DHT22;22257;52.232;21.084;2022-08-20T02:43:09;22.40;99.90
36216;DHT22;22257;52.232;21.084;2022-08-20T02:45:37;22.40;99.90
36216;DHT22;22257;52.232;21.084;2022-08-20T02:48:05;22.30;99.90
36216;DHT22;22257;52.232;21.084;2022-08-20T02:50:32;22.30;99.90
36216;DHT22;22257;52.232;21.084;2022-08-20T02:52:58;22.20;99.90
36216;DHT22;22257;52.232;21.084;2022-08-20T02:55:24;22.20;99.90
36216;DHT22;22257;52.232;21.084;2022-08-20T02:57:52;22.20;99.90
36216;DHT22;22257;52.232;21.084;2022-08-20T03:00:21;22.20;99.90
36216;DHT22;22257;52.232;21.084;2022-08-20T03:02:47;22.10;99.90
36216;DHT22;22257;52.232;21.084;2022-08-20T03:05:13;22.10;99.90
36216;DHT22;22257;52.232;21.084;2022-08-20T03:07:43;22.10;99.90
36216;DHT22;22257;52.232;21.084;2022-08-20T03:10:10;22.10;99.90
36216;DHT22;22257;52.232;21.084;2022-08-20T03:12:37;22.10;99.90
36216;DHT22;22257;52.232;21.084;2022-08-20T03:15:06;22.10;99.90
36216;DHT22;22257;52.232;21.084;2022-08-20T03:17:32;22.10;99.90
36216;DHT22;22257;52.232;21.084;2022-08-20T03:19:59;22.10;99.90
36216;DHT22;22257;52.232;21.084;2022-08-20T03:22:25;22.00;99.90
36216;DHT22;22257;52.232;21.084;2022-08-20T03:24:51;22.00;99.90
36216;DHT22;22257;52.232;21.084;2022-08-20T03:27:17;22.00;99.90
36216;DHT22;22257;52.232;21.084;2022-08-20T03:29:43;22.00;99.90
36216;DHT22;22257;52.232;21.084;2022-08-20T03:32:09;21.90;99.90
36216;DHT22;22257;52.232;21.084;2022-08-20T03:34:37;21.90;99.90
36216;DHT22;22257;52.232;21.084;2022-08-20T03:37:03;21.90;99.90
36216;DHT22;22257;52.232;21.084;2022-08-20T03:39:30;21.90;99.90
36216;DHT22;22257;52.232;21.084;2022-08-20T03:41:56;21.90;99.90
36216;DHT22;22257;52.232;21.084;2022-08-20T03:44:22;21.90;99.90
36216;DHT22;22257;52.232;21.084;2022-08-20T03:46:48;21.90;99.90
36216;DHT22;22257;52.232;21.084;2022-08-20T03:49:14;21.90;99.90
36216;DHT22;22257;52.232;21.084;2022-08-20T03:51:41;21.90;99.90
36216;DHT22;22257;52.232;21.084;2022-08-20T03:54:07;21.90;99.90
36216;DHT22;22257;52.232;21.084;2022-08-20T03:56:34;21.90;99.90
36216;DHT22;22257;52.232;21.084;2022-08-20T03:59:00;21.90;99.90
36216;DHT22;22257;52.232;21.084;2022-08-20T04:01:27;21.90;99.90
36216;DHT22;22257;52.232;21.084;2022-08-20T04:03:53;21.90;99.90
36216;DHT22;22257;52.232;21.084;2022-08-20T04:06:19;21.90;99.90
36216;DHT22;22257;52.232;21.084;2022-08-20T04:08:45;22.00;99.90
36216;DHT22;22257;52.232;21.084;2022-08-20T04:11:11;22.00;99.90
36216;DHT22;22257;52.232;21.084;2022-08-20T04:13:37;22.10;99.90
36216;DHT22;22257;52.232;21.084;2022-08-20T04:16:04;22.10;99.90
36216;DHT22;22257;52.232;21.084;2022-08-20T04:18:31;22.10;99.90
36216;DHT22;22257;52.232;21.084;2022-08-20T04:20:59;22.20;99.90
36216;DHT22;22257;52.232;21.084;2022-08-20T04:23:25;22.10;99.90
36216;DHT22;22257;52.232;21.084;2022-08-20T04:25:51;22.00;99.90
36216;DHT22;22257;52.232;21.084;2022-08-20T04:28:19;22.00;99.90
36216;DHT22;22257;52.232;21.084;2022-08-20T04:30:48;22.00;99.90
36216;DHT22;22257;52.232;21.084;2022-08-20T04:33:14;22.00;99.90
36216;DHT22;22257;52.232;21.084;2022-08-20T04:35:41;22.00;99.90
36216;DHT22;22257;52.232;21.084;2022-08-20T04:38:10;22.10;99.90
36216;DHT22;22257;52.232;21.084;2022-08-20T04:40:37;22.10;99.90
36216;DHT22;22257;52.232;21.084;2022-08-20T04:43:20;22.20;99.90
36216;DHT22;22257;52.232;21.084;2022-08-20T04:45:48;22.30;99.90
36216;DHT22;22257;52.232;21.084;2022-08-20T04:48:18;22.30;99.90
36216;DHT22;22257;52.232;21.084;2022-08-20T04:50:45;22.30;99.90
36216;DHT22;22257;52.232;21.084;2022-08-20T04:53:13;22.20;99.90
36216;DHT22;22257;52.232;21.084;2022-08-20T04:55:43;22.20;99.90
36216;DHT22;22257;52.232;21.084;2022-08-20T04:58:13;22.20;99.90
36216;DHT22;22257;52.232;21.084;2022-08-20T05:00:43;22.30;99.90
36216;DHT22;22257;52.232;21.084;2022-08-20T05:03:09;22.30;99.90
36216;DHT22;22257;52.232;21.084;2022-08-20T05:05:35;22.30;99.90
36216;DHT22;22257;52.232;21.084;2022-08-20T05:08:02;22.30;99.90
36216;DHT22;22257;52.232;21.084;2022-08-20T05:10:29;22.20;99.90
36216;DHT22;22257;52.232;21.084;2022-08-20T05:12:55;22.30;99.90
36216;DHT22;22257;52.232;21.084;2022-08-20T05:15:22;22.30;99.90
36216;DHT22;22257;52.232;21.084;2022-08-20T05:17:58;22.30;99.90
36216;DHT22;22257;52.232;21.084;2022-08-20T05:20:39;22.40;99.90
36216;DHT22;22257;52.232;21.084;2022-08-20T05:23:07;22.40;99.90
36216;DHT22;22257;52.232;21.084;2022-08-20T05:25:34;22.30;99.90
36216;DHT22;22257;52.232;21.084;2022-08-20T05:28:04;22.50;99.90
36216;DHT22;22257;52.232;21.084;2022-08-20T05:30:32;22.50;99.90
36216;DHT22;22257;52.232;21.084;2022-08-20T05:32:59;22.60;99.90
36216;DHT22;22257;52.232;21.084;2022-08-20T05:35:26;22.60;99.90
36216;DHT22;22257;52.232;21.084;2022-08-20T05:37:54;22.60;99.90
36216;DHT22;22257;52.232;21.084;2022-08-20T05:40:20;22.50;99.90
36216;DHT22;22257;52.232;21.084;2022-08-20T05:42:48;22.50;99.90
36216;DHT22;22257;52.232;21.084;2022-08-20T05:45:14;22.50;99.90
36216;DHT22;22257;52.232;21.084;2022-08-20T05:47:42;22.50;99.90
36216;DHT22;22257;52.232;21.084;2022-08-20T05:50:11;22.50;99.90
36216;DHT22;22257;52.232;21.084;2022-08-20T05:52:39;22.50;99.90
36216;DHT22;22257;52.232;21.084;2022-08-20T05:55:07;22.50;99.90
36216;DHT22;22257;52.232;21.084;2022-08-20T05:57:34;22.40;99.90
36216;DHT22;22257;52.232;21.084;2022-08-20T06:00:04;22.40;99.90
36216;DHT22;22257;52.232;21.084;2022-08-20T06:02:31;22.40;99.90
36216;DHT22;22257;52.232;21.084;2022-08-20T06:05:15;22.60;99.90
36216;DHT22;22257;52.232;21.084;2022-08-20T06:07:41;22.70;99.90
36216;DHT22;22257;52.232;21.084;2022-08-20T06:10:08;22.80;99.90
36216;DHT22;22257;52.232;21.084;2022-08-20T06:12:35;23.00;99.90
36216;DHT22;22257;52.232;21.084;2022-08-20T06:15:05;23.20;99.90
36216;DHT22;22257;52.232;21.084;2022-08-20T06:17:32;23.30;99.90
36216;DHT22;22257;52.232;21.084;2022-08-20T06:20:02;23.30;99.90
36216;DHT22;22257;52.232;21.084;2022-08-20T06:22:29;23.40;99.90
36216;DHT22;22257;52.232;21.084;2022-08-20T06:24:55;23.50;99.90
36216;DHT22;22257;52.232;21.084;2022-08-20T06:27:21;23.50;99.90
36216;DHT22;22257;52.232;21.084;2022-08-20T06:29:48;23.70;99.90
36216;DHT22;22257;52.232;21.084;2022-08-20T06:32:15;23.70;99.90
36216;DHT22;22257;52.232;21.084;2022-08-20T06:34:42;23.80;99.90
36216;DHT22;22257;52.232;21.084;2022-08-20T06:37:15;24.00;99.90
36216;DHT22;22257;52.232;21.084;2022-08-20T06:39:43;24.20;99.90
36216;DHT22;22257;52.232;21.084;2022-08-20T06:42:09;24.00;99.90
36216;DHT22;22257;52.232;21.084;2022-08-20T06:44:36;24.10;99.90
36216;DHT22;22257;52.232;21.084;2022-08-20T06:47:04;24.10;99.90
36216;DHT22;22257;52.232;21.084;2022-08-20T06:49:33;24.30;99.90
36216;DHT22;22257;52.232;21.084;2022-08-20T06:51:58;24.20;99.90
36216;DHT22;22257;52.232;21.084;2022-08-20T06:54:24;24.20;99.90
36216;DHT22;22257;52.232;21.084;2022-08-20T06:56:50;24.10;99.90
36216;DHT22;22257;52.232;21.084;2022-08-20T06:59:19;24.00;99.90
36216;DHT22;22257;52.232;21.084;2022-08-20T07:01:45;24.00;99.90
36216;DHT22;22257;52.232;21.084;2022-08-20T07:04:14;24.10;99.90
36216;DHT22;22257;52.232;21.084;2022-08-20T07:06:41;24.10;99.90
36216;DHT22;22257;52.232;21.084;2022-08-20T07:09:08;24.20;99.90
36216;DHT22;22257;52.232;21.084;2022-08-20T07:11:34;24.20;99.90
36216;DHT22;22257;52.232;21.084;2022-08-20T07:14:01;24.20;99.90
36216;DHT22;22257;52.232;21.084;2022-08-20T07:16:31;24.40;99.90
36216;DHT22;22257;52.232;21.084;2022-08-20T07:18:57;24.50;99.90
36216;DHT22;22257;52.232;21.084;2022-08-20T07:21:24;24.40;99.90
36216;DHT22;22257;52.232;21.084;2022-08-20T07:23:50;24.50;99.90
36216;DHT22;22257;52.232;21.084;2022-08-20T07:26:18;24.50;99.90
36216;DHT22;22257;52.232;21.084;2022-08-20T07:28:45;24.50;99.90
36216;DHT22;22257;52.232;21.084;2022-08-20T07:31:11;24.50;99.90
36216;DHT22;22257;52.232;21.084;2022-08-20T07:33:55;24.50;99.90
36216;DHT22;22257;52.232;21.084;2022-08-20T07:36:21;24.30;99.90
36216;DHT22;22257;52.232;21.084;2022-08-20T07:38:48;24.30;99.90
36216;DHT22;22257;52.232;21.084;2022-08-20T07:41:15;24.30;99.90
36216;DHT22;22257;52.232;21.084;2022-08-20T07:43:42;24.40;99.90
36216;DHT22;22257;52.232;21.084;2022-08-20T07:46:12;24.50;99.90
36216;DHT22;22257;52.232;21.084;2022-08-20T07:48:41;24.70;99.90
36216;DHT22;22257;52.232;21.084;2022-08-20T07:51:09;24.80;99.90
36216;DHT22;22257;52.232;21.084;2022-08-20T07:53:37;24.90;99.90
36216;DHT22;22257;52.232;21.084;2022-08-20T07:56:10;24.60;99.90
36216;DHT22;22257;52.232;21.084;2022-08-20T07:58:38;24.50;99.90
36216;DHT22;22257;52.232;21.084;2022-08-20T08:01:06;24.60;99.90
36216;DHT22;22257;52.232;21.084;2022-08-20T08:03:33;24.90;99.90
36216;DHT22;22257;52.232;21.084;2022-08-20T08:05:59;25.00;99.90
36216;DHT22;22257;52.232;21.084;2022-08-20T08:08:27;25.20;99.90
36216;DHT22;22257;52.232;21.084;2022-08-20T08:10:56;25.50;99.90
36216;DHT22;22257;52.232;21.084;2022-08-20T08:13:23;25.80;99.90
36216;DHT22;22257;52.232;21.084;2022-08-20T08:15:55;25.80;99.90
36216;DHT22;22257;52.232;21.084;2022-08-20T08:18:25;25.90;99.90
36216;DHT22;22257;52.232;21.084;2022-08-20T08:20:53;25.90;99.90
36216;DHT22;22257;52.232;21.084;2022-08-20T08:23:21;25.80;99.90
36216;DHT22;22257;52.232;21.084;2022-08-20T08:25:48;26.00;99.90
36216;DHT22;22257;52.232;21.084;2022-08-20T08:28:18;26.20;99.90
36216;DHT22;22257;52.232;21.084;2022-08-20T08:30:45;26.20;99.90
36216;DHT22;22257;52.232;21.084;2022-08-20T08:33:26;26.40;99.90
36216;DHT22;22257;52.232;21.084;2022-08-20T08:35:54;26.50;99.90
36216;DHT22;22257;52.232;21.084;2022-08-20T08:38:22;26.70;99.90
36216;DHT22;22257;52.232;21.084;2022-08-20T08:40:49;26.80;99.90
36216;DHT22;22257;52.232;21.084;2022-08-20T08:43:18;26.80;99.90
36216;DHT22;22257;52.232;21.084;2022-08-20T08:45:52;26.90;99.90
36216;DHT22;22257;52.232;21.084;2022-08-20T08:48:18;26.90;99.90
36216;DHT22;22257;52.232;21.084;2022-08-20T08:50:47;27.00;99.90
36216;DHT22;22257;52.232;21.084;2022-08-20T08:53:21;27.10;99.90
36216;DHT22;22257;52.232;21.084;2022-08-20T08:55:44;27.20;99.90
36216;DHT22;22257;52.232;21.084;2022-08-20T08:58:11;27.20;99.90
36216;DHT22;22257;52.232;21.084;2022-08-20T09:00:37;27.30;99.90
36216;DHT22;22257;52.232;21.084;2022-08-20T09:03:11;27.50;99.90
36216;DHT22;22257;52.232;21.084;2022-08-20T09:05:45;27.30;99.90
36216;DHT22;22257;52.232;21.084;2022-08-20T09:08:13;27.60;99.90
36216;DHT22;22257;52.232;21.084;2022-08-20T09:10:41;27.70;99.90
36216;DHT22;22257;52.232;21.084;2022-08-20T09:13:09;27.90;99.90
36216;DHT22;22257;52.232;21.084;2022-08-20T09:15:35;28.20;99.90
36216;DHT22;22257;52.232;21.084;2022-08-20T09:18:01;28.10;99.90
36216;DHT22;22257;52.232;21.084;2022-08-20T09:20:29;28.30;99.90
36216;DHT22;22257;52.232;21.084;2022-08-20T09:22:56;28.00;99.90
36216;DHT22;22257;52.232;21.084;2022-08-20T09:25:22;28.00;99.90
36216;DHT22;22257;52.232;21.084;2022-08-20T09:27:48;28.20;99.90
36216;DHT22;22257;52.232;21.084;2022-08-20T09:30:15;28.10;99.90
36216;DHT22;22257;52.232;21.084;2022-08-20T09:32:42;28.10;99.90
36216;DHT22;22257;52.232;21.084;2022-08-20T09:35:09;28.10;99.90
36216;DHT22;22257;52.232;21.084;2022-08-20T09:37:36;28.30;99.90
36216;DHT22;22257;52.232;21.084;2022-08-20T09:40:04;28.50;99.90
36216;DHT22;22257;52.232;21.084;2022-08-20T09:42:33;28.40;99.90
36216;DHT22;22257;52.232;21.084;2022-08-20T09:45:01;28.30;99.90
36216;DHT22;22257;52.232;21.084;2022-08-20T09:47:27;28.10;99.90
36216;DHT22;22257;52.232;21.084;2022-08-20T09:49:53;28.20;99.90
36216;DHT22;22257;52.232;21.084;2022-08-20T09:52:26;28.40;99.90
36216;DHT22;22257;52.232;21.084;2022-08-20T09:55:03;28.50;99.90
36216;DHT22;22257;52.232;21.084;2022-08-20T09:57:26;28.70;99.90
36216;DHT22;22257;52.232;21.084;2022-08-20T09:59:57;28.80;99.90
36216;DHT22;22257;52.232;21.084;2022-08-20T10:02:23;28.80;99.90
36216;DHT22;22257;52.232;21.084;2022-08-20T10:04:50;28.80;99.90
36216;DHT22;22257;52.232;21.084;2022-08-20T10:07:16;29.00;99.90
36216;DHT22;22257;52.232;21.084;2022-08-20T10:09:43;29.20;99.90
36216;DHT22;22257;52.232;21.084;2022-08-20T10:12:10;29.70;99.90
36216;DHT22;22257;52.232;21.084;2022-08-20T10:14:36;29.90;99.90
36216;DHT22;22257;52.232;21.084;2022-08-20T10:17:03;29.70;99.90
36216;DHT22;22257;52.232;21.084;2022-08-20T10:19:30;29.90;99.90
36216;DHT22;22257;52.232;21.084;2022-08-20T10:21:57;29.70;99.90
36216;DHT22;22257;52.232;21.084;2022-08-20T10:24:24;29.70;99.90
36216;DHT22;22257;52.232;21.084;2022-08-20T10:26:56;29.90;99.90
36216;DHT22;22257;52.232;21.084;2022-08-20T10:29:24;29.90;99.90
36216;DHT22;22257;52.232;21.084;2022-08-20T10:31:52;30.10;99.90
36216;DHT22;22257;52.232;21.084;2022-08-20T10:34:18;30.50;99.90
36216;DHT22;22257;52.232;21.084;2022-08-20T10:36:45;30.60;99.90
36216;DHT22;22257;52.232;21.084;2022-08-20T10:39:12;30.90;99.90
36216;DHT22;22257;52.232;21.084;2022-08-20T10:41:38;30.90;99.90
36216;DHT22;22257;52.232;21.084;2022-08-20T10:44:04;30.60;99.90
36216;DHT22;22257;52.232;21.084;2022-08-20T10:46:30;30.40;99.90
36216;DHT22;22257;52.232;21.084;2022-08-20T10:48:56;29.90;99.90
36216;DHT22;22257;52.232;21.084;2022-08-20T10:51:22;29.80;99.90
36216;DHT22;22257;52.232;21.084;2022-08-20T10:53:48;30.20;99.90
36216;DHT22;22257;52.232;21.084;2022-08-20T10:56:14;30.50;99.90
36216;DHT22;22257;52.232;21.084;2022-08-20T10:58:41;30.80;99.90
36216;DHT22;22257;52.232;21.084;2022-08-20T11:01:07;31.10;99.90
36216;DHT22;22257;52.232;21.084;2022-08-20T11:03:34;30.80;99.60
36216;DHT22;22257;52.232;21.084;2022-08-20T11:06:00;30.80;99.20
36216;DHT22;22257;52.232;21.084;2022-08-20T11:08:27;31.10;99.40
36216;DHT22;22257;52.232;21.084;2022-08-20T11:10:53;31.80;99.10
36216;DHT22;22257;52.232;21.084;2022-08-20T11:13:19;31.70;96.50
36216;DHT22;22257;52.232;21.084;2022-08-20T11:15:45;31.90;96.00
36216;DHT22;22257;52.232;21.084;2022-08-20T11:18:12;31.70;95.40
36216;DHT22;22257;52.232;21.084;2022-08-20T11:20:39;31.70;95.70
36216;DHT22;22257;52.232;21.084;2022-08-20T11:23:05;31.60;95.50
36216;DHT22;22257;52.232;21.084;2022-08-20T11:25:31;31.60;95.00
36216;DHT22;22257;52.232;21.084;2022-08-20T11:27:58;32.20;94.60
36216;DHT22;22257;52.232;21.084;2022-08-20T11:30:27;32.10;93.50
36216;DHT22;22257;52.232;21.084;2022-08-20T11:32:55;32.30;92.30
36216;DHT22;22257;52.232;21.084;2022-08-20T11:35:22;32.10;91.50
36216;DHT22;22257;52.232;21.084;2022-08-20T11:37:50;32.20;91.50
36216;DHT22;22257;52.232;21.084;2022-08-20T11:40:17;32.10;91.20
36216;DHT22;22257;52.232;21.084;2022-08-20T11:42:43;32.40;91.70
36216;DHT22;22257;52.232;21.084;2022-08-20T11:45:09;32.80;90.60
36216;DHT22;22257;52.232;21.084;2022-08-20T11:47:36;33.10;90.40
36216;DHT22;22257;52.232;21.084;2022-08-20T11:50:07;33.30;87.60
36216;DHT22;22257;52.232;21.084;2022-08-20T11:52:33;33.40;87.50
36216;DHT22;22257;52.232;21.084;2022-08-20T11:54:59;32.80;85.50
36216;DHT22;22257;52.232;21.084;2022-08-20T11:57:29;32.40;85.00
36216;DHT22;22257;52.232;21.084;2022-08-20T11:59:57;32.40;84.40
36216;DHT22;22257;52.232;21.084;2022-08-20T12:02:24;32.30;83.20
36216;DHT22;22257;52.232;21.084;2022-08-20T12:04:50;32.50;83.40
36216;DHT22;22257;52.232;21.084;2022-08-20T12:07:19;32.50;82.30
36216;DHT22;22257;52.232;21.084;2022-08-20T12:09:46;33.00;85.60
36216;DHT22;22257;52.232;21.084;2022-08-20T12:12:14;33.30;80.10
36216;DHT22;22257;52.232;21.084;2022-08-20T12:14:40;33.90;77.90
36216;DHT22;22257;52.232;21.084;2022-08-20T12:17:22;33.50;76.30
36216;DHT22;22257;52.232;21.084;2022-08-20T12:19:47;33.00;76.90
36216;DHT22;22257;52.232;21.084;2022-08-20T12:22:14;33.20;77.90
36216;DHT22;22257;52.232;21.084;2022-08-20T12:24:40;33.50;77.20
36216;DHT22;22257;52.232;21.084;2022-08-20T12:27:11;32.70;77.30
36216;DHT22;22257;52.232;21.084;2022-08-20T12:29:39;32.70;79.50
36216;DHT22;22257;52.232;21.084;2022-08-20T12:32:06;32.90;79.30
36216;DHT22;22257;52.232;21.084;2022-08-20T12:34:34;33.10;78.70
36216;DHT22;22257;52.232;21.084;2022-08-20T12:37:01;33.90;79.60
36216;DHT22;22257;52.232;21.084;2022-08-20T12:39:31;34.50;73.40
36216;DHT22;22257;52.232;21.084;2022-08-20T12:42:00;34.70;74.30
36216;DHT22;22257;52.232;21.084;2022-08-20T12:44:29;33.60;74.20
36216;DHT22;22257;52.232;21.084;2022-08-20T12:47:11;33.00;74.20
36216;DHT22;22257;52.232;21.084;2022-08-20T12:49:35;33.20;72.70
36216;DHT22;22257;52.232;21.084;2022-08-20T12:52:02;33.60;71.80
36216;DHT22;22257;52.232;21.084;2022-08-20T12:54:29;33.60;70.80
36216;DHT22;22257;52.232;21.084;2022-08-20T12:56:55;33.30;70.90
36216;DHT22;22257;52.232;21.084;2022-08-20T12:59:23;33.20;72.70
36216;DHT22;22257;52.232;21.084;2022-08-20T13:01:51;32.80;73.50
36216;DHT22;22257;52.232;21.084;2022-08-20T13:04:18;33.10;72.70
36216;DHT22;22257;52.232;21.084;2022-08-20T13:06:44;33.60;74.10
36216;DHT22;22257;52.232;21.084;2022-08-20T13:09:11;33.40;74.40
36216;DHT22;22257;52.232;21.084;2022-08-20T13:11:37;32.30;75.60
36216;DHT22;22257;52.232;21.084;2022-08-20T13:14:03;31.90;78.80
36216;DHT22;22257;52.232;21.084;2022-08-20T13:16:30;32.40;78.50
36216;DHT22;22257;52.232;21.084;2022-08-20T13:18:57;32.70;76.10
36216;DHT22;22257;52.232;21.084;2022-08-20T13:21:23;32.70;75.10
36216;DHT22;22257;52.232;21.084;2022-08-20T13:23:49;32.70;74.40
36216;DHT22;22257;52.232;21.084;2022-08-20T13:26:15;32.50;74.90
36216;DHT22;22257;52.232;21.084;2022-08-20T13:28:42;32.90;77.00
36216;DHT22;22257;52.232;21.084;2022-08-20T13:31:08;33.60;73.20
36216;DHT22;22257;52.232;21.084;2022-08-20T13:33:34;34.00;75.10
36216;DHT22;22257;52.232;21.084;2022-08-20T13:36:00;33.70;69.80
36216;DHT22;22257;52.232;21.084;2022-08-20T13:38:26;34.00;69.90
36216;DHT22;22257;52.232;21.084;2022-08-20T13:40:53;33.50;70.30
36216;DHT22;22257;52.232;21.084;2022-08-20T13:43:19;33.30;70.10
36216;DHT22;22257;52.232;21.084;2022-08-20T13:45:45;33.10;69.50
36216;DHT22;22257;52.232;21.084;2022-08-20T13:48:11;32.70;70.20
36216;DHT22;22257;52.232;21.084;2022-08-20T13:50:37;32.80;70.80
36216;DHT22;22257;52.232;21.084;2022-08-20T13:53:04;33.00;70.20
36216;DHT22;22257;52.232;21.084;2022-08-20T13:55:30;33.60;70.50
36216;DHT22;22257;52.232;21.084;2022-08-20T13:57:56;33.60;69.00
36216;DHT22;22257;52.232;21.084;2022-08-20T14:00:26;33.30;69.50
36216;DHT22;22257;52.232;21.084;2022-08-20T14:02:53;33.00;70.50
36216;DHT22;22257;52.232;21.084;2022-08-20T14:05:20;34.00;69.90
36216;DHT22;22257;52.232;21.084;2022-08-20T14:07:48;33.70;68.80
36216;DHT22;22257;52.232;21.084;2022-08-20T14:10:18;33.50;67.70
36216;DHT22;22257;52.232;21.084;2022-08-20T14:12:44;34.00;67.60
36216;DHT22;22257;52.232;21.084;2022-08-20T14:15:10;33.40;68.20
36216;DHT22;22257;52.232;21.084;2022-08-20T14:17:39;33.30;68.50
36216;DHT22;22257;52.232;21.084;2022-08-20T14:22:36;33.70;67.70
36216;DHT22;22257;52.232;21.084;2022-08-20T14:25:03;33.90;67.70
36216;DHT22;22257;52.232;21.084;2022-08-20T14:27:31;33.20;68.30
36216;DHT22;22257;52.232;21.084;2022-08-20T14:30:00;32.80;69.60
36216;DHT22;22257;52.232;21.084;2022-08-20T14:32:27;32.50;70.20
36216;DHT22;22257;52.232;21.084;2022-08-20T14:34:53;32.90;70.60
36216;DHT22;22257;52.232;21.084;2022-08-20T14:37:28;33.00;69.60
36216;DHT22;22257;52.232;21.084;2022-08-20T14:39:56;33.40;69.10
36216;DHT22;22257;52.232;21.084;2022-08-20T14:42:24;32.60;70.20
36216;DHT22;22257;52.232;21.084;2022-08-20T14:44:52;32.90;69.80
36216;DHT22;22257;52.232;21.084;2022-08-20T14:47:22;32.40;71.20
36216;DHT22;22257;52.232;21.084;2022-08-20T14:49:49;32.60;71.40
36216;DHT22;22257;52.232;21.084;2022-08-20T14:52:17;33.20;70.40
36216;DHT22;22257;52.232;21.084;2022-08-20T14:54:45;33.80;68.80
36216;DHT22;22257;52.232;21.084;2022-08-20T14:57:12;34.00;67.20
36216;DHT22;22257;52.232;21.084;2022-08-20T14:59:39;34.10;67.90
36216;DHT22;22257;52.232;21.084;2022-08-20T15:02:09;34.00;68.30
36216;DHT22;22257;52.232;21.084;2022-08-20T15:04:35;34.30;68.10
36216;DHT22;22257;52.232;21.084;2022-08-20T15:07:03;34.60;67.80
36216;DHT22;22257;52.232;21.084;2022-08-20T15:09:33;34.00;68.10
36216;DHT22;22257;52.232;21.084;2022-08-20T15:11:59;33.50;68.20
36216;DHT22;22257;52.232;21.084;2022-08-20T15:14:26;33.30;68.40
36216;DHT22;22257;52.232;21.084;2022-08-20T15:16:54;33.00;68.70
36216;DHT22;22257;52.232;21.084;2022-08-20T15:19:21;32.90;70.00
36216;DHT22;22257;52.232;21.084;2022-08-20T15:21:48;32.20;70.60
36216;DHT22;22257;52.232;21.084;2022-08-20T15:24:15;31.90;71.60
36216;DHT22;22257;52.232;21.084;2022-08-20T15:26:43;31.70;73.20
36216;DHT22;22257;52.232;21.084;2022-08-20T15:29:09;31.50;74.10
36216;DHT22;22257;52.232;21.084;2022-08-20T15:31:35;31.40;75.10